Gregory — WDF2419 — position and weather

sailwx.info

Track history (hours):
 
Tides and Currents Weather Stations Pressure Air Temp Water Temp Dewpoint Dewpoint Depression Visibility Wind Speed Wind Dir Waves Ship Positions

Gregory

Owner: Enterprise Marine Services, LLC, San Antonio, TX. More information available from US FCC via Universal Licensing System and Coast Guard Vessel Documentation Center.

Last reported at 2017-Sep-24 23:38 UTC. Time now 2017-Sep-26 09:29 UTC.
Position N 29°44' W 095°12'.

; draft 3.3 m.

Type: Towing. MMSI: 367003370.

Date/timePositionNaut miles runAvg speedWind from/ knotsBaromVisibWave heightAir tempDewpointWater temp
2017-Sep-24 23:38N 29°44' W 095°12'0 0.0
2017-Sep-24 23:30N 29°44' W 095°12'0 0.0
2017-Sep-24 22:43N 29°44' W 095°12'1 2.3
2017-Sep-24 22:22N 29°45' W 095°12'2 4.6
2017-Sep-24 21:59N 29°45' W 095°10'4 4.2
2017-Sep-24 21:04N 29°46' W 095°05'1 4.4
2017-Sep-24 20:53N 29°46' W 095°05'2 3.7
2017-Sep-24 20:28N 29°47' W 095°04'  
2017-Sep-20 19:34N 29°47' W 095°05'0 0.0
2017-Sep-20 19:14N 29°47' W 095°05'1 0.7
2017-Sep-20 18:17N 29°47' W 095°05'3 0.6
2017-Sep-20 12:59N 29°44' W 095°03'3 5.2
2017-Sep-20 12:26N 29°46' W 095°05'3 0.2
2017-Sep-19 21:00N 29°44' W 095°03'2 3.6
2017-Sep-19 20:29N 29°45' W 095°04'1 0.1
2017-Sep-19 14:09N 29°46' W 095°05'2 0.9
2017-Sep-19 11:24N 29°44' W 095°03'2 4.5
2017-Sep-19 10:59N 29°43' W 095°01'3 5.4
2017-Sep-19 10:30N 29°41' W 094°59'2 4.0
2017-Sep-19 10:00N 29°39' W 094°58'3 5.8
2017-Sep-19 09:30N 29°37' W 094°57'3 6.1
2017-Sep-19 09:00N 29°34' W 094°55'3 6.1
2017-Sep-19 08:29N 29°31' W 094°53'69 4.2
2017-Sep-18 15:59N 30°03' W 093°42'2 3.2
2017-Sep-18 15:25N 30°04' W 093°40'2 4.6
2017-Sep-18 14:59N 30°04' W 093°38'2 4.6
2017-Sep-18 14:30N 30°04' W 093°35'2 4.6
2017-Sep-18 14:00N 30°04' W 093°33'2 4.6
2017-Sep-18 13:30N 30°04' W 093°30'2 4.6
2017-Sep-18 13:00N 30°04' W 093°27'2 4.2
2017-Sep-18 12:30N 30°04' W 093°25'2 4.8
2017-Sep-18 12:00N 30°04' W 093°22'1 2.9
2017-Sep-18 11:30N 30°04' W 093°21'2 3.4
2017-Sep-18 11:00N 30°06' W 093°20'2 4.3
2017-Sep-18 10:30N 30°08' W 093°20'1 1.3
2017-Sep-18 10:00N 30°08' W 093°20'0 0.8
2017-Sep-18 09:30N 30°08' W 093°19'0 0.2
2017-Sep-18 09:00N 30°08' W 093°19'0 0.0
2017-Sep-18 08:30N 30°08' W 093°19'0 0.0
2017-Sep-18 08:00N 30°08' W 093°19'0 0.0
2017-Sep-18 07:30N 30°08' W 093°19'0 0.0
2017-Sep-18 07:00N 30°08' W 093°19'0 0.0
2017-Sep-18 06:30N 30°08' W 093°19'0 0.0
2017-Sep-18 06:00N 30°08' W 093°19'0 0.0
2017-Sep-18 05:30N 30°08' W 093°19'0 0.0
2017-Sep-18 05:00N 30°08' W 093°19'0 0.0
2017-Sep-18 04:30N 30°08' W 093°19'0 0.0
2017-Sep-18 04:00N 30°08' W 093°19'0 0.0
2017-Sep-18 03:30N 30°08' W 093°19'0 0.0
2017-Sep-18 03:00N 30°08' W 093°19'0 0.0
2017-Sep-18 02:30N 30°08' W 093°19'0 0.0
2017-Sep-18 02:00N 30°08' W 093°19'0 0.0
2017-Sep-18 01:30N 30°08' W 093°19'0 0.0
2017-Sep-18 01:00N 30°08' W 093°19'0 0.0
2017-Sep-18 00:30N 30°08' W 093°19'0 0.0
2017-Sep-18 00:00N 30°08' W 093°19'0 0.0
2017-Sep-17 23:30N 30°08' W 093°19'0 0.0
2017-Sep-17 23:00N 30°08' W 093°19'0 0.0
2017-Sep-17 22:30N 30°08' W 093°19'0 0.0
2017-Sep-17 22:00N 30°08' W 093°19'0 0.0
2017-Sep-17 21:30N 30°08' W 093°19'0 0.0
2017-Sep-17 21:00N 30°08' W 093°19'0 0.0
2017-Sep-17 20:30N 30°08' W 093°19'0 0.0
2017-Sep-17 20:00N 30°08' W 093°19'0 0.0
2017-Sep-17 19:30N 30°08' W 093°19'0 0.0
2017-Sep-17 19:00N 30°08' W 093°19'0 0.0
2017-Sep-17 18:30N 30°08' W 093°19'0 0.0
2017-Sep-17 18:00N 30°08' W 093°19'0 0.0
2017-Sep-17 17:30N 30°08' W 093°19'0 0.0
2017-Sep-17 17:00N 30°08' W 093°19'0 0.0
2017-Sep-17 16:30N 30°08' W 093°19'0 0.0
2017-Sep-17 16:00N 30°08' W 093°19'0 0.0
2017-Sep-17 15:30N 30°08' W 093°19'0 0.0
2017-Sep-17 15:00N 30°08' W 093°19'0 0.0
2017-Sep-17 14:30N 30°08' W 093°19'0 0.0
2017-Sep-17 14:00N 30°08' W 093°19'0 0.0
2017-Sep-17 13:30N 30°08' W 093°19'0 0.0
2017-Sep-17 13:00N 30°08' W 093°19'0 0.0
2017-Sep-17 12:30N 30°08' W 093°19'0 0.0
2017-Sep-17 12:00N 30°08' W 093°19'0 0.0
2017-Sep-17 11:30N 30°08' W 093°19'0 0.0
2017-Sep-17 11:00N 30°08' W 093°19'0 0.0
2017-Sep-17 10:30N 30°08' W 093°19'1 1.5
2017-Sep-17 10:00N 30°07' W 093°20'3 5.4
2017-Sep-17 09:30N 30°05' W 093°20'0 0.8
2017-Sep-17 09:00N 30°04' W 093°20'0 0.1
2017-Sep-17 08:30N 30°04' W 093°20'0 0.0
2017-Sep-17 08:00N 30°04' W 093°20'0 0.0
2017-Sep-17 07:30N 30°04' W 093°20'0 0.0
2017-Sep-17 07:00N 30°04' W 093°20'0 0.0
2017-Sep-17 06:30N 30°04' W 093°20'0 0.0
2017-Sep-17 06:00N 30°04' W 093°20'0 0.0
2017-Sep-17 05:30N 30°04' W 093°20'0 0.0
2017-Sep-17 04:57N 30°04' W 093°20'0 0.0
2017-Sep-17 04:30N 30°04' W 093°20'0 0.0
2017-Sep-17 04:00N 30°04' W 093°20'0 0.0
2017-Sep-17 03:30N 30°04' W 093°20'0 0.0
2017-Sep-17 03:00N 30°04' W 093°20'0 0.0
2017-Sep-17 02:30N 30°04' W 093°20'0 0.0
2017-Sep-17 02:00N 30°04' W 093°20'0 0.0
2017-Sep-17 01:30N 30°04' W 093°20'0 0.0
2017-Sep-17 01:00N 30°04' W 093°20'0 0.0
2017-Sep-17 00:30N 30°04' W 093°20'0 0.0
2017-Sep-17 00:00N 30°04' W 093°20'0 0.0
2017-Sep-16 23:30N 30°04' W 093°20'0 0.0
2017-Sep-16 23:00N 30°04' W 093°20'0 0.0
2017-Sep-16 22:30N 30°04' W 093°20'0 0.0
2017-Sep-16 22:00N 30°04' W 093°20'0 0.0
2017-Sep-16 21:30N 30°04' W 093°20'0 0.0
2017-Sep-16 21:00N 30°04' W 093°20'0 0.0
2017-Sep-16 20:30N 30°04' W 093°20'0 0.0
2017-Sep-16 20:00N 30°04' W 093°20'0 0.0
2017-Sep-16 19:30N 30°04' W 093°20'0 0.0
2017-Sep-16 19:00N 30°04' W 093°20'0 0.0
2017-Sep-16 18:30N 30°04' W 093°20'0 0.0
2017-Sep-16 18:00N 30°04' W 093°20'0 0.0
2017-Sep-16 17:30N 30°04' W 093°20'0 0.0
2017-Sep-16 17:00N 30°04' W 093°20'0 0.0
2017-Sep-16 16:30N 30°04' W 093°20'0 0.0
2017-Sep-16 16:00N 30°04' W 093°20'0 0.0
2017-Sep-16 15:30N 30°04' W 093°20'0 0.0
2017-Sep-16 15:00N 30°04' W 093°20'0 0.0
2017-Sep-16 14:30N 30°04' W 093°20'0 0.0
2017-Sep-16 14:00N 30°04' W 093°20'0 0.0
2017-Sep-16 13:30N 30°04' W 093°20'0 0.0
2017-Sep-16 13:00N 30°04' W 093°20'0 0.0
2017-Sep-16 12:30N 30°04' W 093°20'0 0.0
2017-Sep-16 12:00N 30°04' W 093°20'0 0.0
2017-Sep-16 11:30N 30°04' W 093°20'0 0.0
2017-Sep-16 11:00N 30°04' W 093°20'0 0.0
2017-Sep-16 10:30N 30°04' W 093°20'0 0.0
2017-Sep-16 10:00N 30°04' W 093°20'0 0.0
2017-Sep-16 09:30N 30°04' W 093°20'0 0.0
2017-Sep-16 09:00N 30°04' W 093°20'0 0.0
2017-Sep-16 08:30N 30°04' W 093°20'0 0.0
2017-Sep-16 08:00N 30°04' W 093°20'0 0.0
2017-Sep-16 07:30N 30°04' W 093°20'0 0.0
2017-Sep-16 07:00N 30°04' W 093°20'0 0.0
2017-Sep-16 06:30N 30°04' W 093°20'0 0.0
2017-Sep-16 06:00N 30°04' W 093°20'0 0.0
2017-Sep-16 05:30N 30°04' W 093°20'1 1.2
2017-Sep-16 05:00N 30°04' W 093°21'2 4.4
2017-Sep-16 04:30N 30°04' W 093°23'0 0.4
2017-Sep-16 04:00N 30°04' W 093°24'0 0.0
2017-Sep-16 03:30N 30°04' W 093°24'0 0.0
2017-Sep-16 03:00N 30°04' W 093°24'0 0.0
2017-Sep-16 02:30N 30°04' W 093°24'1 1.7
2017-Sep-16 02:00N 30°04' W 093°25'4 6.8
2017-Sep-16 01:28N 30°04' W 093°29'3 6.8
2017-Sep-16 01:00N 30°04' W 093°32'3 6.7
2017-Sep-16 00:30N 30°04' W 093°36'74 3.4
2017-Sep-15 02:58N 29°31' W 094°53'3 5.9
2017-Sep-15 02:30N 29°33' W 094°55'3 6.2
2017-Sep-15 02:00N 29°36' W 094°57'3 6.6
2017-Sep-15 01:30N 29°39' W 094°58'4 6.9
2017-Sep-15 00:56N 29°42' W 095°01'3 5.8
2017-Sep-15 00:28N 29°44' W 095°03'  
Track history (hours):
 
Tides and Currents Weather Stations Pressure Air Temp Water Temp Dewpoint Dewpoint Depression Visibility Wind Speed Wind Dir Waves Ship Positions

Gregory

Owner: Enterprise Marine Services, LLC, San Antonio, TX. More information available from US FCC via Universal Licensing System and Coast Guard Vessel Documentation Center.

Last reported at 2017-Sep-24 23:38 UTC. Time now 2017-Sep-26 09:29 UTC.
Position N 29°44' W 095°12'.

; draft 3.3 m.

Type: Towing. MMSI: 367003370.

Date/timePositionNaut miles runAvg speedWind from/ knotsBaromVisibWave heightAir tempDewpointWater temp
2017-Sep-24 23:38N 29°44' W 095°12'0 0.0
2017-Sep-24 23:30N 29°44' W 095°12'0 0.0
2017-Sep-24 22:43N 29°44' W 095°12'1 2.3
2017-Sep-24 22:22N 29°45' W 095°12'2 4.6
2017-Sep-24 21:59N 29°45' W 095°10'4 4.2
2017-Sep-24 21:04N 29°46' W 095°05'1 4.4
2017-Sep-24 20:53N 29°46' W 095°05'2 3.7
2017-Sep-24 20:28N 29°47' W 095°04'  
2017-Sep-20 19:34N 29°47' W 095°05'0 0.0
2017-Sep-20 19:14N 29°47' W 095°05'1 0.7
2017-Sep-20 18:17N 29°47' W 095°05'3 0.6
2017-Sep-20 12:59N 29°44' W 095°03'3 5.2
2017-Sep-20 12:26N 29°46' W 095°05'3 0.2
2017-Sep-19 21:00N 29°44' W 095°03'2 3.6
2017-Sep-19 20:29N 29°45' W 095°04'1 0.1
2017-Sep-19 14:09N 29°46' W 095°05'2 0.9
2017-Sep-19 11:24N 29°44' W 095°03'2 4.5
2017-Sep-19 10:59N 29°43' W 095°01'3 5.4
2017-Sep-19 10:30N 29°41' W 094°59'2 4.0
2017-Sep-19 10:00N 29°39' W 094°58'3 5.8
2017-Sep-19 09:30N 29°37' W 094°57'3 6.1
2017-Sep-19 09:00N 29°34' W 094°55'3 6.1
2017-Sep-19 08:29N 29°31' W 094°53'69 4.2
2017-Sep-18 15:59N 30°03' W 093°42'2 3.2
2017-Sep-18 15:25N 30°04' W 093°40'2 4.6
2017-Sep-18 14:59N 30°04' W 093°38'2 4.6
2017-Sep-18 14:30N 30°04' W 093°35'2 4.6
2017-Sep-18 14:00N 30°04' W 093°33'2 4.6
2017-Sep-18 13:30N 30°04' W 093°30'2 4.6
2017-Sep-18 13:00N 30°04' W 093°27'2 4.2
2017-Sep-18 12:30N 30°04' W 093°25'2 4.8
2017-Sep-18 12:00N 30°04' W 093°22'1 2.9
2017-Sep-18 11:30N 30°04' W 093°21'2 3.4
2017-Sep-18 11:00N 30°06' W 093°20'2 4.3
2017-Sep-18 10:30N 30°08' W 093°20'1 1.3
2017-Sep-18 10:00N 30°08' W 093°20'0 0.8
2017-Sep-18 09:30N 30°08' W 093°19'0 0.2
2017-Sep-18 09:00N 30°08' W 093°19'0 0.0
2017-Sep-18 08:30N 30°08' W 093°19'0 0.0
2017-Sep-18 08:00N 30°08' W 093°19'0 0.0
2017-Sep-18 07:30N 30°08' W 093°19'0 0.0
2017-Sep-18 07:00N 30°08' W 093°19'0 0.0
2017-Sep-18 06:30N 30°08' W 093°19'0 0.0
2017-Sep-18 06:00N 30°08' W 093°19'0 0.0
2017-Sep-18 05:30N 30°08' W 093°19'0 0.0
2017-Sep-18 05:00N 30°08' W 093°19'0 0.0
2017-Sep-18 04:30N 30°08' W 093°19'0 0.0
2017-Sep-18 04:00N 30°08' W 093°19'0 0.0
2017-Sep-18 03:30N 30°08' W 093°19'0 0.0
2017-Sep-18 03:00N 30°08' W 093°19'0 0.0
2017-Sep-18 02:30N 30°08' W 093°19'0 0.0
2017-Sep-18 02:00N 30°08' W 093°19'0 0.0
2017-Sep-18 01:30N 30°08' W 093°19'0 0.0
2017-Sep-18 01:00N 30°08' W 093°19'0 0.0
2017-Sep-18 00:30N 30°08' W 093°19'0 0.0
2017-Sep-18 00:00N 30°08' W 093°19'0 0.0
2017-Sep-17 23:30N 30°08' W 093°19'0 0.0
2017-Sep-17 23:00N 30°08' W 093°19'0 0.0
2017-Sep-17 22:30N 30°08' W 093°19'0 0.0
2017-Sep-17 22:00N 30°08' W 093°19'0 0.0
2017-Sep-17 21:30N 30°08' W 093°19'0 0.0
2017-Sep-17 21:00N 30°08' W 093°19'0 0.0
2017-Sep-17 20:30N 30°08' W 093°19'0 0.0
2017-Sep-17 20:00N 30°08' W 093°19'0 0.0
2017-Sep-17 19:30N 30°08' W 093°19'0 0.0
2017-Sep-17 19:00N 30°08' W 093°19'0 0.0
2017-Sep-17 18:30N 30°08' W 093°19'0 0.0
2017-Sep-17 18:00N 30°08' W 093°19'0 0.0
2017-Sep-17 17:30N 30°08' W 093°19'0 0.0
2017-Sep-17 17:00N 30°08' W 093°19'0 0.0
2017-Sep-17 16:30N 30°08' W 093°19'0 0.0
2017-Sep-17 16:00N 30°08' W 093°19'0 0.0
2017-Sep-17 15:30N 30°08' W 093°19'0 0.0
2017-Sep-17 15:00N 30°08' W 093°19'0 0.0
2017-Sep-17 14:30N 30°08' W 093°19'0 0.0
2017-Sep-17 14:00N 30°08' W 093°19'0 0.0
2017-Sep-17 13:30N 30°08' W 093°19'0 0.0
2017-Sep-17 13:00N 30°08' W 093°19'0 0.0
2017-Sep-17 12:30N 30°08' W 093°19'0 0.0
2017-Sep-17 12:00N 30°08' W 093°19'0 0.0
2017-Sep-17 11:30N 30°08' W 093°19'0 0.0
2017-Sep-17 11:00N 30°08' W 093°19'0 0.0
2017-Sep-17 10:30N 30°08' W 093°19'1 1.5
2017-Sep-17 10:00N 30°07' W 093°20'3 5.4
2017-Sep-17 09:30N 30°05' W 093°20'0 0.8
2017-Sep-17 09:00N 30°04' W 093°20'0 0.1
2017-Sep-17 08:30N 30°04' W 093°20'0 0.0
2017-Sep-17 08:00N 30°04' W 093°20'0 0.0
2017-Sep-17 07:30N 30°04' W 093°20'0 0.0
2017-Sep-17 07:00N 30°04' W 093°20'0 0.0
2017-Sep-17 06:30N 30°04' W 093°20'0 0.0
2017-Sep-17 06:00N 30°04' W 093°20'0 0.0
2017-Sep-17 05:30N 30°04' W 093°20'0 0.0
2017-Sep-17 04:57N 30°04' W 093°20'0 0.0
2017-Sep-17 04:30N 30°04' W 093°20'0 0.0
2017-Sep-17 04:00N 30°04' W 093°20'0 0.0
2017-Sep-17 03:30N 30°04' W 093°20'0 0.0
2017-Sep-17 03:00N 30°04' W 093°20'0 0.0
2017-Sep-17 02:30N 30°04' W 093°20'0 0.0
2017-Sep-17 02:00N 30°04' W 093°20'0 0.0
2017-Sep-17 01:30N 30°04' W 093°20'0 0.0
2017-Sep-17 01:00N 30°04' W 093°20'0 0.0
2017-Sep-17 00:30N 30°04' W 093°20'0 0.0
2017-Sep-17 00:00N 30°04' W 093°20'0 0.0
2017-Sep-16 23:30N 30°04' W 093°20'0 0.0
2017-Sep-16 23:00N 30°04' W 093°20'0 0.0
2017-Sep-16 22:30N 30°04' W 093°20'0 0.0
2017-Sep-16 22:00N 30°04' W 093°20'0 0.0
2017-Sep-16 21:30N 30°04' W 093°20'0 0.0
2017-Sep-16 21:00N 30°04' W 093°20'0 0.0
2017-Sep-16 20:30N 30°04' W 093°20'0 0.0
2017-Sep-16 20:00N 30°04' W 093°20'0 0.0
2017-Sep-16 19:30N 30°04' W 093°20'0 0.0
2017-Sep-16 19:00N 30°04' W 093°20'0 0.0
2017-Sep-16 18:30N 30°04' W 093°20'0 0.0
2017-Sep-16 18:00N 30°04' W 093°20'0 0.0
2017-Sep-16 17:30N 30°04' W 093°20'0 0.0
2017-Sep-16 17:00N 30°04' W 093°20'0 0.0
2017-Sep-16 16:30N 30°04' W 093°20'0 0.0
2017-Sep-16 16:00N 30°04' W 093°20'0 0.0
2017-Sep-16 15:30N 30°04' W 093°20'0 0.0
2017-Sep-16 15:00N 30°04' W 093°20'0 0.0
2017-Sep-16 14:30N 30°04' W 093°20'0 0.0
2017-Sep-16 14:00N 30°04' W 093°20'0 0.0
2017-Sep-16 13:30N 30°04' W 093°20'0 0.0
2017-Sep-16 13:00N 30°04' W 093°20'0 0.0
2017-Sep-16 12:30N 30°04' W 093°20'0 0.0
2017-Sep-16 12:00N 30°04' W 093°20'0 0.0
2017-Sep-16 11:30N 30°04' W 093°20'0 0.0
2017-Sep-16 11:00N 30°04' W 093°20'0 0.0
2017-Sep-16 10:30N 30°04' W 093°20'0 0.0
2017-Sep-16 10:00N 30°04' W 093°20'0 0.0
2017-Sep-16 09:30N 30°04' W 093°20'0 0.0
2017-Sep-16 09:00N 30°04' W 093°20'0 0.0
2017-Sep-16 08:30N 30°04' W 093°20'0 0.0
2017-Sep-16 08:00N 30°04' W 093°20'0 0.0
2017-Sep-16 07:30N 30°04' W 093°20'0 0.0
2017-Sep-16 07:00N 30°04' W 093°20'0 0.0
2017-Sep-16 06:30N 30°04' W 093°20'0 0.0
2017-Sep-16 06:00N 30°04' W 093°20'0 0.0
2017-Sep-16 05:30N 30°04' W 093°20'1 1.2
2017-Sep-16 05:00N 30°04' W 093°21'2 4.4
2017-Sep-16 04:30N 30°04' W 093°23'0 0.4
2017-Sep-16 04:00N 30°04' W 093°24'0 0.0
2017-Sep-16 03:30N 30°04' W 093°24'0 0.0
2017-Sep-16 03:00N 30°04' W 093°24'0 0.0
2017-Sep-16 02:30N 30°04' W 093°24'1 1.7
2017-Sep-16 02:00N 30°04' W 093°25'4 6.8
2017-Sep-16 01:28N 30°04' W 093°29'3 6.8
2017-Sep-16 01:00N 30°04' W 093°32'3 6.7
2017-Sep-16 00:30N 30°04' W 093°36'74 3.4
2017-Sep-15 02:58N 29°31' W 094°53'3 5.9
2017-Sep-15 02:30N 29°33' W 094°55'3 6.2
2017-Sep-15 02:00N 29°36' W 094°57'3 6.6
2017-Sep-15 01:30N 29°39' W 094°58'4 6.9
2017-Sep-15 00:56N 29°42' W 095°01'3 5.8
2017-Sep-15 00:28N 29°44' W 095°03'  

Dump ship's entire track history